Time;durP1;ratioP1;P1;durP2;ratioP2;P2;SDS_P1;SDS_P2;PMS_P1;PMS_P2;Temp;Humidity;BMP_temperature;BMP_pressure;BME280_temperature;BME280_humidity;BME280_pressure;Samples;Min_cycle;Max_cycle;Signal;HPM_P1;HPM_P2
2023/12/27 00:00:42;;;;;;;6.53;2.50;;;;;;;5.12;88.61;101189.56;5030449;28;20214;-81
2023/12/27 00:03:10;;;;;;;8.17;2.50;;;;;;;5.28;88.06;101176.84;5031367;28;20210;-81
2023/12/27 00:05:36;;;;;;;6.20;2.10;;;;;;;5.36;86.74;101194.22;5030452;28;20203;-82
2023/12/27 00:08:03;;;;;;;10.40;1.97;;;;;;;5.39;84.56;101227.03;5031811;28;20207;-81
2023/12/27 00:10:29;;;;;;;5.13;1.63;;;;;;;5.43;85.17;101240.91;5030504;28;20206;-81
2023/12/27 00:12:56;;;;;;;6.93;1.50;;;;;;;5.35;84.85;101258.91;4684001;28;10000571;-81
2023/12/27 00:15:22;;;;;;;5.07;1.70;;;;;;;5.45;85.11;101257.34;5031543;28;20276;-81
2023/12/27 00:17:48;;;;;;;4.00;1.30;;;;;;;5.57;83.88;101273.94;5031779;28;20227;-81
2023/12/27 00:20:16;;;;;;;5.03;1.07;;;;;;;5.51;83.19;101299.75;5031591;28;20203;-81
2023/12/27 00:22:43;;;;;;;7.37;1.97;;;;;;;5.32;84.71;101284.75;5032369;28;20233;-80
2023/12/27 00:25:09;;;;;;;4.17;2.17;;;;;;;5.52;84.45;101285.94;5031702;28;20357;-82
2023/12/27 00:27:35;;;;;;;3.53;1.10;;;;;;;5.37;84.42;101290.88;5034881;28;20201;-81
2023/12/27 00:30:02;;;;;;;6.47;1.30;;;;;;;5.23;84.67;101301.00;5034495;28;20202;-81
2023/12/27 00:32:29;;;;;;;5.80;1.50;;;;;;;5.32;85.23;101279.59;5034093;28;20280;-81
2023/12/27 00:34:55;;;;;;;4.57;1.13;;;;;;;5.32;84.68;101275.28;5034746;28;20220;-82
2023/12/27 00:37:23;;;;;;;6.73;1.20;;;;;;;5.41;83.86;101284.91;5033615;28;20277;-82
2023/12/27 00:39:49;;;;;;;6.43;1.43;;;;;;;5.46;83.06;101313.47;5033169;28;20681;-82
2023/12/27 00:42:15;;;;;;;5.73;1.43;;;;;;;4.96;85.17;101319.53;5034269;28;20249;-81
2023/12/27 00:44:41;;;;;;;4.43;1.10;;;;;;;5.20;85.45;101289.75;5032759;28;20234;-81
2023/12/27 00:47:08;;;;;;;3.13;1.20;;;;;;;5.29;84.65;101297.63;5033259;28;20198;-81
2023/12/27 00:49:34;;;;;;;3.47;1.10;;;;;;;4.88;85.20;101310.75;5033560;28;20203;-81
2023/12/27 00:52:01;;;;;;;4.83;1.10;;;;;;;5.18;85.44;101289.72;5033306;28;20202;-81
2023/12/27 00:54:28;;;;;;;5.00;1.40;;;;;;;5.00;86.52;101273.88;5032590;28;20223;-82
2023/12/27 00:56:55;;;;;;;5.97;1.60;;;;;;;4.96;85.40;101260.88;5033093;28;20219;-81
2023/12/27 00:59:21;;;;;;;2.30;1.30;;;;;;;5.11;85.13;101282.69;5032935;28;20199;-81
2023/12/27 01:01:48;;;;;;;3.37;1.43;;;;;;;5.02;84.83;101298.94;5032793;28;20204;-81
2023/12/27 01:04:14;;;;;;;2.23;0.80;;;;;;;5.15;84.70;101294.81;5033572;28;20349;-82
2023/12/27 01:06:40;;;;;;;6.73;1.60;;;;;;;5.10;84.34;101310.28;5037217;28;20890;-82
2023/12/27 01:09:07;;;;;;;4.20;1.17;;;;;;;5.12;83.97;101328.44;5027490;28;20253;-81
2023/12/27 01:11:34;;;;;;;4.03;1.10;;;;;;;5.16;83.45;101336.25;5034075;28;20214;-82
2023/12/27 01:14:02;;;;;;;4.93;0.90;;;;;;;5.15;82.77;101367.28;5033876;28;20252;-82
2023/12/27 01:16:28;;;;;;;3.87;0.80;;;;;;;5.15;83.34;101370.78;5033220;28;20815;-81
2023/12/27 01:18:54;;;;;;;5.30;1.20;;;;;;;5.15;84.16;101363.00;5033851;28;20207;-81
2023/12/27 01:21:21;;;;;;;4.63;0.80;;;;;;;5.19;83.07;101371.66;5033910;28;20270;-81
2023/12/27 01:23:48;;;;;;;4.23;1.10;;;;;;;5.22;81.58;101404.53;5025777;28;20702;-82
2023/12/27 01:26:14;;;;;;;4.07;1.50;;;;;;;5.21;82.09;101420.88;5034772;28;20579;-81
2023/12/27 01:28:42;;;;;;;8.03;1.40;;;;;;;5.21;81.57;101439.88;5034441;28;20740;-82
2023/12/27 01:31:09;;;;;;;3.73;1.17;;;;;;;4.97;83.39;101433.41;5034087;28;20208;-81
2023/12/27 01:33:35;;;;;;;4.43;1.07;;;;;;;5.06;82.98;101417.16;5033508;28;20254;-81
2023/12/27 01:36:06;;;;;;;3.93;1.00;;;;;;;5.09;82.29;101424.09;5034095;28;20579;-82
2023/12/27 01:38:32;;;;;;;7.80;1.63;;;;;;;4.98;83.49;101435.13;5033862;28;20222;-81
2023/12/27 01:40:59;;;;;;;4.20;1.30;;;;;;;5.09;82.75;101422.38;5033103;28;20261;-81
2023/12/27 01:43:25;;;;;;;6.63;0.87;;;;;;;5.13;82.55;101433.66;5033729;28;20245;-82
2023/12/27 01:45:53;;;;;;;4.20;1.13;;;;;;;5.10;81.76;101447.44;5033558;28;20626;-81
2023/12/27 01:48:20;;;;;;;2.23;0.93;;;;;;;5.12;82.44;101444.88;5033676;28;20198;-81
2023/12/27 01:50:47;;;;;;;3.13;1.10;;;;;;;5.08;82.02;101445.66;5035039;28;20257;-82
2023/12/27 01:53:14;;;;;;;4.97;1.20;;;;;;;5.11;82.00;101456.97;5033508;28;20207;-81
2023/12/27 01:55:40;;;;;;;3.63;1.00;;;;;;;5.05;81.82;101458.53;5034848;28;20206;-81
2023/12/27 01:58:08;;;;;;;3.50;0.90;;;;;;;5.03;81.73;101480.91;5037136;28;20253;-82
2023/12/27 02:00:36;;;;;;;4.43;1.03;;;;;;;4.98;81.49;101473.94;5036483;28;20239;-81
2023/12/27 02:03:04;;;;;;;2.77;0.87;;;;;;;5.00;81.48;101480.88;5036751;28;20211;-81
2023/12/27 02:05:31;;;;;;;3.97;1.10;;;;;;;4.93;82.34;101472.09;5037766;28;20203;-81
2023/12/27 02:07:58;;;;;;;3.50;1.00;;;;;;;4.80;83.16;101452.88;5037473;28;20270;-82
2023/12/27 02:10:25;;;;;;;3.77;0.87;;;;;;;4.81;83.12;101433.91;5036851;28;20210;-81
2023/12/27 02:12:51;;;;;;;2.67;0.80;;;;;;;4.84;82.58;101426.22;5017266;28;20202;-81
2023/12/27 02:15:17;;;;;;;4.23;1.10;;;;;;;4.89;81.78;101434.06;5016787;28;20282;-80
2023/12/27 02:17:44;;;;;;;2.57;0.90;;;;;;;4.95;81.97;101435.03;5017347;28;20241;-82
2023/12/27 02:20:13;;;;;;;3.43;1.30;;;;;;;4.87;81.91;101440.91;5016901;28;20203;-81
2023/12/27 02:22:42;;;;;;;4.00;0.90;;;;;;;4.88;82.15;101433.19;5016983;28;20219;-82
2023/12/27 02:25:10;;;;;;;4.30;1.10;;;;;;;4.89;82.41;101428.88;5021839;28;20766;-82
2023/12/27 02:27:36;;;;;;;4.47;1.30;;;;;;;4.83;82.49;101424.47;5036335;28;20285;-81
2023/12/27 02:30:03;;;;;;;5.73;1.23;;;;;;;4.86;82.50;101411.59;5036328;28;20204;-81
2023/12/27 02:32:30;;;;;;;4.07;1.50;;;;;;;4.85;82.31;101417.59;5037097;28;20203;-82
2023/12/27 02:34:56;;;;;;;2.97;0.97;;;;;;;4.76;82.22;101423.47;5036237;28;20234;-82
2023/12/27 02:37:22;;;;;;;2.90;1.00;;;;;;;4.74;82.75;101421.69;5027536;28;20227;-80
2023/12/27 02:39:49;;;;;;;2.30;0.90;;;;;;;4.78;82.36;101421.78;5036395;28;20677;-82
2023/12/27 02:42:16;;;;;;;5.13;1.00;;;;;;;4.74;82.43;101412.22;5036386;28;20233;-82
2023/12/27 02:44:43;;;;;;;2.70;0.80;;;;;;;4.65;83.30;101413.75;5036407;28;20236;-82
2023/12/27 02:47:09;;;;;;;3.53;1.13;;;;;;;4.68;83.59;101394.00;5036191;28;20878;-82
2023/12/27 02:49:36;;;;;;;3.20;1.03;;;;;;;4.70;83.38;101394.03;5036517;28;20666;-81
2023/12/27 02:52:02;;;;;;;2.97;1.03;;;;;;;4.72;83.37;101393.22;5036758;28;20204;-82
2023/12/27 02:54:28;;;;;;;7.23;1.27;;;;;;;4.74;83.15;101382.91;5035627;28;20223;-81
2023/12/27 02:56:55;;;;;;;6.00;1.50;;;;;;;4.62;83.60;101390.38;5035798;28;20211;-82
2023/12/27 02:59:23;;;;;;;3.73;1.33;;;;;;;4.60;83.46;101385.22;5036422;28;20670;-82
2023/12/27 03:01:50;;;;;;;3.33;1.10;;;;;;;4.68;83.61;101380.19;5037002;28;20673;-82
2023/12/27 03:04:17;;;;;;;3.57;1.20;;;;;;;4.60;83.41;101373.97;5036208;28;20269;-81
2023/12/27 03:06:42;;;;;;;3.63;0.90;;;;;;;4.63;83.91;101366.28;5035932;28;20633;-82
2023/12/27 03:09:08;;;;;;;4.33;0.80;;;;;;;4.60;83.67;101366.22;5036015;28;20251;-82
2023/12/27 03:11:35;;;;;;;4.83;1.20;;;;;;;4.61;83.59;101358.50;5036324;28;20217;-81
2023/12/27 03:14:01;;;;;;;2.23;0.87;;;;;;;4.63;84.14;101361.13;5037058;28;20226;-81
2023/12/27 03:16:29;;;;;;;4.23;0.97;;;;;;;4.63;83.21;101368.88;5035969;28;20266;-80
2023/12/27 03:18:57;;;;;;;4.50;1.40;;;;;;;4.57;84.16;101364.44;5028203;28;20230;-81
2023/12/27 03:21:23;;;;;;;6.43;1.60;;;;;;;4.62;84.58;101349.91;5036510;28;20222;-81
2023/12/27 03:23:50;;;;;;;4.10;1.10;;;;;;;4.65;83.72;101344.78;5036204;28;20646;-82
2023/12/27 03:26:16;;;;;;;3.17;1.13;;;;;;;4.53;83.39;101353.16;5035996;28;20206;-81
2023/12/27 03:28:42;;;;;;;4.97;0.83;;;;;;;4.56;83.56;101362.72;5036038;28;20199;-81
2023/12/27 03:31:09;;;;;;;2.63;1.10;;;;;;;4.50;82.99;101366.03;5035968;28;20199;-82
2023/12/27 03:33:36;;;;;;;3.40;0.90;;;;;;;4.47;83.10;101362.53;5036251;28;20307;-81
2023/12/27 03:36:03;;;;;;;3.67;1.27;;;;;;;4.53;83.21;101360.91;5035814;28;20736;-81
2023/12/27 03:38:29;;;;;;;8.33;1.67;;;;;;;4.44;84.01;101365.03;5035919;28;20706;-81
2023/12/27 03:40:56;;;;;;;6.33;1.40;;;;;;;4.46;83.95;101355.59;5035650;28;20207;-82
2023/12/27 03:43:22;;;;;;;3.50;1.13;;;;;;;4.52;83.53;101353.13;5036216;28;20788;-82
2023/12/27 03:45:50;;;;;;;3.20;1.70;;;;;;;4.46;83.89;101353.00;5035916;28;20220;-82
2023/12/27 03:48:16;;;;;;;3.97;1.10;;;;;;;4.35;84.29;101348.50;5035556;28;20264;-81
2023/12/27 03:50:44;;;;;;;5.87;1.57;;;;;;;4.38;85.54;101322.72;5035993;28;20207;-81
2023/12/27 03:53:10;;;;;;;5.93;1.47;;;;;;;4.46;85.52;101301.31;5035913;28;20212;-82
2023/12/27 03:55:37;;;;;;;7.70;1.17;;;;;;;4.47;84.80;101308.22;5035562;28;20343;-81
2023/12/27 03:58:04;;;;;;;3.47;1.10;;;;;;;4.43;84.75;101315.03;5035721;28;20293;-81
2023/12/27 04:00:30;;;;;;;3.30;1.07;;;;;;;4.36;84.52;101319.22;5036121;28;20260;-81
2023/12/27 04:02:56;;;;;;;3.93;1.20;;;;;;;4.34;84.51;101320.91;5036393;28;20260;-81
2023/12/27 04:05:23;;;;;;;4.20;1.10;;;;;;;4.41;83.94;101321.91;5036067;28;20246;-81
2023/12/27 04:07:50;;;;;;;4.80;1.00;;;;;;;4.42;83.65;101328.81;5035813;28;20705;-82
2023/12/27 04:10:17;;;;;;;3.00;1.03;;;;;;;4.36;84.02;101336.44;5034909;28;20204;-82
2023/12/27 04:12:43;;;;;;;3.10;0.80;;;;;;;4.25;85.00;101323.28;5035542;28;20239;-81
2023/12/27 04:15:10;;;;;;;3.40;1.20;;;;;;;4.17;85.09;101301.59;5034591;28;20252;-82
2023/12/27 04:17:36;;;;;;;3.47;1.20;;;;;;;4.26;85.04;101296.63;5035492;28;20268;-81
2023/12/27 04:20:03;;;;;;;5.10;1.20;;;;;;;4.27;84.90;101293.19;5035216;28;20204;-81
2023/12/27 04:22:29;;;;;;;2.60;1.13;;;;;;;4.34;84.87;101294.16;5035737;28;20202;-82
2023/12/27 04:24:57;;;;;;;3.60;1.10;;;;;;;4.23;85.18;101296.53;5035345;28;20643;-82
2023/12/27 04:27:23;;;;;;;5.83;1.37;;;;;;;4.24;86.12;101272.47;5035589;28;20671;-82
2023/12/27 04:29:50;;;;;;;3.80;1.23;;;;;;;4.20;86.42;101256.84;5035749;28;20208;-82
2023/12/27 04:32:16;;;;;;;4.07;1.00;;;;;;;4.10;86.92;101251.50;5036049;28;20276;-82
2023/12/27 04:34:42;;;;;;;6.13;0.97;;;;;;;4.12;86.77;101256.69;5035395;28;20286;-82
2023/12/27 04:37:09;;;;;;;6.33;1.67;;;;;;;4.17;87.38;101252.50;5035804;28;20257;-82
2023/12/27 04:39:35;;;;;;;2.60;1.00;;;;;;;4.18;87.21;101249.06;5031534;28;20281;-82
2023/12/27 04:42:03;;;;;;;5.10;0.83;;;;;;;4.32;86.70;101237.31;5039975;28;20199;-81
2023/12/27 04:44:29;;;;;;;7.37;1.03;;;;;;;4.36;86.33;101248.56;5035859;28;20227;-82
2023/12/27 04:46:56;;;;;;;3.97;0.90;;;;;;;4.42;85.88;101255.56;5035740;28;20234;-82
2023/12/27 04:49:22;;;;;;;5.17;1.20;;;;;;;4.38;85.50;101265.00;5035709;28;20274;-82
2023/12/27 04:51:48;;;;;;;8.40;1.47;;;;;;;4.47;86.10;101274.63;5032178;28;20204;-82
2023/12/27 04:54:15;;;;;;;5.80;1.10;;;;;;;4.52;86.12;101280.75;5035881;28;20257;-82
2023/12/27 04:56:42;;;;;;;3.20;0.97;;;;;;;4.55;85.98;101285.97;5035435;28;20637;-82
2023/12/27 04:59:09;;;;;;;5.07;0.97;;;;;;;4.63;85.69;101301.66;5035693;28;20226;-81
2023/12/27 05:01:36;;;;;;;3.97;1.00;;;;;;;4.68;85.46;101300.03;5035734;28;20237;-82
2023/12/27 05:04:02;;;;;;;3.13;0.97;;;;;;;4.74;85.82;101300.16;5036213;28;20274;-82
2023/12/27 05:06:28;;;;;;;1.97;1.40;;;;;;;4.78;85.87;101299.38;5035994;28;20575;-82
2023/12/27 05:08:55;;;;;;;4.00;1.20;;;;;;;4.81;86.21;101302.00;5035415;28;20275;-82
2023/12/27 05:11:21;;;;;;;4.93;0.97;;;;;;;4.81;86.83;101308.88;5035371;28;20202;-82
2023/12/27 05:13:48;;;;;;;3.97;0.83;;;;;;;4.86;86.86;101295.19;5034861;28;20763;-81
2023/12/27 05:16:17;;;;;;;2.63;1.10;;;;;;;4.86;87.11;101289.16;5035003;28;20656;-82
2023/12/27 05:18:45;;;;;;;5.10;1.27;;;;;;;4.93;87.63;101289.25;5035955;28;20277;-82
2023/12/27 05:21:14;;;;;;;2.93;1.10;;;;;;;4.95;87.00;101281.53;5035264;28;20265;-81
2023/12/27 05:23:40;;;;;;;8.97;1.47;;;;;;;4.96;87.29;101280.72;5035982;28;20228;-82
2023/12/27 05:26:07;;;;;;;9.13;1.63;;;;;;;4.95;87.42;101274.63;5035245;28;20251;-82
2023/12/27 05:28:34;;;;;;;3.43;1.07;;;;;;;5.04;87.57;101279.13;5035735;28;20203;-82
2023/12/27 05:31:00;;;;;;;6.37;1.27;;;;;;;5.10;87.06;101292.16;5036920;28;20271;-82
2023/12/27 05:33:28;;;;;;;3.20;1.37;;;;;;;5.14;86.95;101295.69;5039634;28;20629;-82
2023/12/27 05:35:55;;;;;;;3.53;1.17;;;;;;;5.13;86.27;101301.69;5039753;28;20244;-81
2023/12/27 05:38:22;;;;;;;3.77;1.20;;;;;;;5.16;86.43;101299.16;5038930;28;20219;-82
2023/12/27 05:40:48;;;;;;;8.27;1.13;;;;;;;5.17;87.05;101298.31;5039343;28;20858;-82
2023/12/27 05:43:15;;;;;;;5.20;1.10;;;;;;;5.19;86.38;101291.44;5039547;28;20200;-81
2023/12/27 05:45:41;;;;;;;2.30;0.77;;;;;;;5.16;86.51;101281.91;5039321;28;20244;-81
2023/12/27 05:48:08;;;;;;;5.17;1.37;;;;;;;5.19;86.65;101275.91;5039827;28;20253;-82
2023/12/27 05:50:36;;;;;;;4.27;1.00;;;;;;;5.16;87.32;101274.16;5040492;28;20540;-82
2023/12/27 05:53:03;;;;;;;4.73;0.93;;;;;;;5.21;87.11;101271.63;5040058;28;20214;-81
2023/12/27 05:55:29;;;;;;;3.67;1.27;;;;;;;5.28;86.79;101275.22;5053801;28;20195;-80
2023/12/27 05:57:55;;;;;;;9.03;1.63;;;;;;;5.29;86.98;101277.81;5059241;28;20417;-80
2023/12/27 06:00:22;;;;;;;4.67;1.10;;;;;;;5.29;86.41;101285.59;5059322;28;20190;-81
2023/12/27 06:02:48;;;;;;;5.80;1.87;;;;;;;5.29;86.35;101276.94;5059108;28;20203;-81
2023/12/27 06:05:14;;;;;;;4.13;2.03;;;;;;;5.17;86.65;101269.84;5058485;28;20222;-82
2023/12/27 06:07:42;;;;;;;5.57;1.30;;;;;;;5.22;86.89;101257.84;5044466;28;20206;-82
2023/12/27 06:10:09;;;;;;;6.23;1.43;;;;;;;5.25;86.82;101257.03;5038274;28;20276;-82
2023/12/27 06:12:35;;;;;;;3.90;1.37;;;;;;;5.28;87.84;101244.16;5038875;28;20228;-82
2023/12/27 06:15:03;;;;;;;5.00;0.93;;;;;;;5.34;87.38;101246.81;5038385;28;20235;-81
2023/12/27 06:17:29;;;;;;;3.13;1.17;;;;;;;5.39;87.18;101247.75;5038981;28;20203;-81
2023/12/27 06:19:56;;;;;;;3.60;1.03;;;;;;;5.36;86.88;101251.16;5038893;28;20278;-82
2023/12/27 06:22:22;;;;;;;3.23;1.07;;;;;;;5.37;87.33;101257.22;5038684;28;20203;-82
2023/12/27 06:24:50;;;;;;;2.30;0.93;;;;;;;5.34;87.07;101259.78;5038347;28;20283;-82
2023/12/27 06:27:16;;;;;;;8.70;1.10;;;;;;;5.34;86.64;101270.13;5038957;28;20319;-81
2023/12/27 06:29:42;;;;;;;7.50;1.20;;;;;;;5.28;87.32;101263.13;5038815;28;20253;-82
2023/12/27 06:32:09;;;;;;;3.43;1.10;;;;;;;5.29;87.02;101267.47;5037914;28;20207;-81
2023/12/27 06:34:36;;;;;;;8.30;1.30;;;;;;;5.32;86.34;101267.50;5036722;28;20226;-81
2023/12/27 06:37:02;;;;;;;3.67;1.20;;;;;;;5.27;86.20;101276.03;5036344;28;20289;-82
2023/12/27 06:39:29;;;;;;;7.43;1.20;;;;;;;5.28;85.99;101277.78;5037329;28;20779;-82
2023/12/27 06:41:56;;;;;;;6.13;0.97;;;;;;;5.25;85.21;101283.81;5037973;28;20245;-82
2023/12/27 06:44:23;;;;;;;2.90;1.00;;;;;;;5.30;84.89;101294.22;5037363;28;20272;-82
2023/12/27 06:46:50;;;;;;;4.67;1.10;;;;;;;5.21;84.39;101315.63;5036841;28;20210;-82
2023/12/27 06:49:16;;;;;;;7.40;1.30;;;;;;;5.15;84.45;101331.06;5036552;28;20231;-82
2023/12/27 06:51:42;;;;;;;6.50;1.67;;;;;;;5.14;84.52;101343.13;5036561;28;20281;-82
2023/12/27 06:54:09;;;;;;;7.97;1.20;;;;;;;5.17;84.41;101347.47;5037138;28;20300;-82
2023/12/27 06:56:38;;;;;;;2.47;1.10;;;;;;;5.09;84.20;101344.75;5036531;28;20233;-82
2023/12/27 06:59:06;;;;;;;4.83;0.90;;;;;;;5.03;84.91;101338.59;5035986;28;20226;-82
2023/12/27 07:01:32;;;;;;;3.70;1.17;;;;;;;4.99;85.49;101332.50;5036154;28;20298;-82
2023/12/27 07:03:59;;;;;;;4.10;1.30;;;;;;;5.05;85.81;101318.81;5035853;28;20230;-82
2023/12/27 07:06:25;;;;;;;4.10;2.07;;;;;;;5.04;85.31;101320.53;5035822;28;20660;-82
2023/12/27 07:08:51;;;;;;;3.37;1.10;;;;;;;5.01;85.40;101322.19;5035847;28;20207;-81
2023/12/27 07:11:18;;;;;;;5.07;1.07;;;;;;;5.02;86.40;101300.66;5036436;28;20261;-81
2023/12/27 07:13:46;;;;;;;5.07;1.47;;;;;;;5.03;86.36;101286.84;5035565;28;20238;-82
2023/12/27 07:16:14;;;;;;;6.03;1.40;;;;;;;5.04;86.93;101284.31;5036237;28;20240;-81
2023/12/27 07:18:40;;;;;;;8.37;1.47;;;;;;;5.06;87.59;101267.09;5035985;28;20730;-82
2023/12/27 07:21:06;;;;;;;3.70;1.20;;;;;;;5.14;87.44;101269.81;5035122;28;20698;-82
2023/12/27 07:23:33;;;;;;;3.33;0.90;;;;;;;5.18;87.51;101248.31;5034816;28;20276;-81
2023/12/27 07:26:00;;;;;;;6.93;1.20;;;;;;;5.23;87.33;101251.81;5035570;28;20226;-82
2023/12/27 07:28:27;;;;;;;4.47;1.00;;;;;;;5.29;87.28;101254.53;5036309;28;20207;-81
2023/12/27 07:30:53;;;;;;;8.43;1.40;;;;;;;5.27;86.97;101268.28;5036872;28;20201;-82
2023/12/27 07:33:21;;;;;;;2.73;1.13;;;;;;;5.23;86.81;101264.75;5035721;28;20211;-82
2023/12/27 07:35:47;;;;;;;5.80;1.40;;;;;;;5.27;86.17;101265.69;5035764;28;20234;-82
2023/12/27 07:38:14;;;;;;;5.17;1.00;;;;;;;5.25;86.42;101277.72;5039704;28;20248;-82
2023/12/27 07:40:40;;;;;;;7.70;1.13;;;;;;;5.30;85.53;101279.56;5043203;28;20229;-82
2023/12/27 07:43:09;;;;;;;6.10;1.13;;;;;;;5.19;86.13;101281.09;5036959;28;20211;-82
2023/12/27 07:45:35;;;;;;;7.53;1.30;;;;;;;5.12;87.05;101285.31;5036128;28;20210;-82
2023/12/27 07:48:02;;;;;;;3.33;0.97;;;;;;;5.14;86.55;101277.56;5036567;28;20253;-83
2023/12/27 07:50:30;;;;;;;3.67;1.17;;;;;;;5.10;86.27;101284.41;5036540;28;20210;-82
2023/12/27 07:52:56;;;;;;;4.83;1.63;;;;;;;5.08;87.02;101282.66;5036608;28;20583;-82
2023/12/27 07:55:23;;;;;;;4.07;1.00;;;;;;;5.10;86.37;101270.59;5035035;28;20303;-83
2023/12/27 07:57:49;;;;;;;3.40;1.00;;;;;;;5.15;86.14;101271.53;5036202;28;20236;-82
2023/12/27 08:00:17;;;;;;;2.40;0.90;;;;;;;5.20;85.81;101280.25;5035830;28;20219;-82
2023/12/27 08:02:44;;;;;;;6.30;1.30;;;;;;;5.14;86.14;101285.34;5036461;28;20696;-82
2023/12/27 08:05:10;;;;;;;3.50;1.07;;;;;;;5.16;86.60;101283.63;5035483;28;20227;-82
2023/12/27 08:07:39;;;;;;;2.90;1.17;;;;;;;5.15;85.90;101280.19;5035859;28;20237;-82
2023/12/27 08:10:06;;;;;;;3.30;1.17;;;;;;;5.17;86.32;101281.09;5052730;28;20214;-82
2023/12/27 08:12:33;;;;;;;3.23;1.37;;;;;;;5.18;86.14;101276.78;5056557;28;20580;-82
2023/12/27 08:15:00;;;;;;;4.20;1.30;;;;;;;5.12;86.15;101277.53;5056095;28;20237;-82
2023/12/27 08:17:26;;;;;;;9.73;1.50;;;;;;;5.14;86.32;101269.81;5056015;28;20287;-82
2023/12/27 08:19:53;;;;;;;4.67;1.53;;;;;;;5.21;85.75;101273.34;5055503;28;20232;-82
2023/12/27 08:22:20;;;;;;;3.17;1.70;;;;;;;5.26;86.29;101270.00;5056104;28;20205;-82
2023/12/27 08:24:47;;;;;;;5.03;1.37;;;;;;;5.28;86.58;101263.13;5055940;28;20227;-82
2023/12/27 08:27:14;;;;;;;6.30;2.93;;;;;;;5.30;86.75;101266.59;5055896;28;20209;-82
2023/12/27 08:29:41;;;;;;;5.20;1.43;;;;;;;5.34;86.16;101258.03;5055536;28;20207;-82
2023/12/27 08:32:07;;;;;;;4.63;1.30;;;;;;;5.40;86.04;101248.66;5055644;28;20199;-82
2023/12/27 08:34:34;;;;;;;3.67;1.30;;;;;;;5.39;86.56;101255.50;5055464;28;20298;-83
2023/12/27 08:37:00;;;;;;;3.67;1.60;;;;;;;5.43;85.93;101251.25;5055631;28;20747;-83
2023/12/27 08:39:26;;;;;;;4.73;1.40;;;;;;;5.50;86.53;101250.53;5054180;28;20640;-82
2023/12/27 08:41:54;;;;;;;8.40;1.40;;;;;;;5.54;85.29;101255.75;5056432;28;20206;-82
2023/12/27 08:44:21;;;;;;;9.07;1.30;;;;;;;5.54;85.86;101257.47;5056541;28;20641;-82
2023/12/27 08:46:47;;;;;;;5.47;1.40;;;;;;;5.55;85.50;101260.09;5055066;28;20207;-82
2023/12/27 08:49:14;;;;;;;5.30;1.63;;;;;;;5.56;85.45;101251.47;5055432;28;20738;-82
2023/12/27 08:51:40;;;;;;;3.40;1.40;;;;;;;5.62;85.84;101257.59;5055729;28;20202;-83
2023/12/27 08:54:06;;;;;;;3.57;1.20;;;;;;;5.59;85.82;101253.25;5055752;28;20237;-83
2023/12/27 08:56:33;;;;;;;7.27;1.57;;;;;;;5.62;85.31;101249.84;5054963;28;20598;-82
2023/12/27 08:59:00;;;;;;;3.23;1.37;;;;;;;5.66;85.68;101255.06;5055938;28;20605;-82
2023/12/27 09:01:28;;;;;;;3.10;1.57;;;;;;;5.72;84.98;101251.69;5055580;28;20207;-82
2023/12/27 09:03:54;;;;;;;4.50;1.57;;;;;;;5.72;85.48;101249.97;5056374;28;20700;-81
2023/12/27 09:06:21;;;;;;;5.40;1.50;;;;;;;5.72;85.36;101243.94;5057416;28;20202;-81
2023/12/27 09:08:49;;;;;;;3.13;1.53;;;;;;;5.82;85.20;101234.56;5055686;28;20213;-81
2023/12/27 09:11:18;;;;;;;5.67;1.57;;;;;;;5.88;85.49;101221.69;5057568;28;20252;-82
2023/12/27 09:13:44;;;;;;;6.17;1.80;;;;;;;5.87;85.81;101225.16;5058173;28;20233;-81
2023/12/27 09:16:12;;;;;;;3.47;1.47;;;;;;;5.90;85.73;101220.84;5058041;28;20216;-81
2023/12/27 09:18:39;;;;;;;4.33;1.63;;;;;;;5.64;87.40;101204.09;5054775;28;20207;-82
2023/12/27 09:21:07;;;;;;;8.17;1.87;;;;;;;5.81;87.89;101174.13;5053439;28;20231;-79
2023/12/27 09:23:33;;;;;;;2.83;1.33;;;;;;;6.02;86.62;101163.16;5054101;28;20236;-82
2023/12/27 09:25:59;;;;;;;3.37;1.40;;;;;;;6.12;85.69;101175.34;5054753;28;20237;-82
2023/12/27 09:28:27;;;;;;;3.17;1.27;;;;;;;6.24;85.49;101178.94;5055625;28;20207;-81
2023/12/27 09:30:53;;;;;;;3.13;1.10;;;;;;;6.32;86.36;101183.38;5055127;28;20203;-82
2023/12/27 09:33:21;;;;;;;2.67;1.20;;;;;;;6.41;84.99;101194.69;5055442;28;20212;-82
2023/12/27 09:35:47;;;;;;;3.63;1.53;;;;;;;6.47;84.58;101207.72;5055252;28;20276;-82
2023/12/27 09:38:14;;;;;;;4.50;1.50;;;;;;;6.53;84.18;101218.16;5051588;28;20682;-82
2023/12/27 09:40:40;;;;;;;2.87;1.50;;;;;;;6.57;84.49;101219.91;5054501;28;20231;-82
2023/12/27 09:43:08;;;;;;;4.43;1.20;;;;;;;6.60;84.03;101225.16;5054043;28;20202;-82
2023/12/27 09:45:37;;;;;;;4.43;1.50;;;;;;;6.66;84.18;101224.31;5053713;28;20279;-82
2023/12/27 09:48:07;;;;;;;5.97;1.70;;;;;;;6.69;83.72;101229.56;5054771;28;20649;-82
2023/12/27 09:50:36;;;;;;;4.10;1.50;;;;;;;6.69;83.36;101240.78;5055247;28;20207;-83
2023/12/27 09:53:04;;;;;;;3.30;1.23;;;;;;;6.75;83.71;101243.44;5055347;28;20251;-81
2023/12/27 09:55:30;;;;;;;4.87;1.00;;;;;;;6.80;83.22;101237.44;5054083;28;20231;-81
2023/12/27 09:57:57;;;;;;;2.47;1.33;;;;;;;6.86;83.05;101243.56;5053637;28;20207;-82
2023/12/27 10:00:28;;;;;;;14.97;1.90;;;;;;;6.89;83.51;101247.91;5053892;28;20226;-81
2023/12/27 10:02:59;;;;;;;5.37;1.40;;;;;;;6.94;83.21;101247.09;5054581;28;20229;-82
2023/12/27 10:05:30;;;;;;;2.40;1.30;;;;;;;6.94;83.68;101243.63;5053159;28;20233;-80
2023/12/27 10:08:00;;;;;;;5.07;1.80;;;;;;;6.95;82.77;101242.75;5050694;28;20210;-81
2023/12/27 10:10:27;;;;;;;3.33;1.40;;;;;;;7.01;83.20;101241.94;5054210;28;20207;-80
2023/12/27 10:12:55;;;;;;;3.37;1.23;;;;;;;7.06;82.46;101250.66;5054499;28;20256;-81
2023/12/27 10:15:21;;;;;;;3.23;1.43;;;;;;;7.06;83.19;101235.94;5053996;28;20239;-82
2023/12/27 10:17:48;;;;;;;4.83;1.50;;;;;;;7.14;83.33;101236.00;5056967;28;20233;-82
2023/12/27 10:20:30;;;;;;;4.60;1.40;;;;;;;7.23;82.39;101235.19;5058525;28;20223;-81
2023/12/27 10:22:59;;;;;;;4.63;1.60;;;;;;;7.25;82.77;101243.88;5057714;28;20217;-82
2023/12/27 10:25:28;;;;;;;6.00;1.60;;;;;;;7.24;82.20;101245.59;5057710;28;20253;-81
2023/12/27 10:27:54;;;;;;;2.70;1.57;;;;;;;7.29;81.85;101249.09;5057390;28;20206;-82
2023/12/27 10:30:21;;;;;;;3.60;1.40;;;;;;;7.31;82.44;101251.72;5057679;28;20255;-81
2023/12/27 10:32:57;;;;;;;3.80;1.33;;;;;;;7.29;81.69;101259.47;5057749;28;20261;-81
2023/12/27 10:35:23;;;;;;;3.73;1.20;;;;;;;7.35;82.27;101256.06;5058270;28;20273;-81
2023/12/27 10:38:00;;;;;;;3.13;1.47;;;;;;;7.42;81.65;101259.59;5056628;28;20258;-81
2023/12/27 10:40:26;;;;;;;3.77;1.57;;;;;;;7.45;82.15;101250.09;5057248;28;20225;-82
2023/12/27 10:42:52;;;;;;;3.33;1.23;;;;;;;7.52;82.75;101251.00;5058324;28;20204;-81
2023/12/27 10:45:20;;;;;;;4.40;1.67;;;;;;;7.56;82.27;101258.81;5057778;28;20234;-82
2023/12/27 10:47:48;;;;;;;4.83;1.63;;;;;;;7.59;81.69;101254.50;5057568;28;20210;-81
2023/12/27 10:50:19;;;;;;;4.40;1.57;;;;;;;7.60;80.89;101266.66;5058198;28;20207;-81
2023/12/27 10:52:55;;;;;;;4.80;1.50;;;;;;;7.65;81.25;101265.81;5057819;28;20241;-81
2023/12/27 10:55:26;;;;;;;7.20;1.30;;;;;;;7.67;81.53;101265.81;5057549;28;20230;-81
2023/12/27 10:57:55;;;;;;;3.90;1.73;;;;;;;7.69;81.46;101258.88;5057960;28;20209;-81
2023/12/27 11:00:23;;;;;;;5.20;2.27;;;;;;;7.70;81.20;101252.84;5056981;28;20294;-81
2023/12/27 11:02:50;;;;;;;3.97;2.10;;;;;;;7.68;80.47;101257.16;5057470;28;20747;-81
2023/12/27 11:05:19;;;;;;;6.37;2.37;;;;;;;7.70;80.72;101247.66;5056623;28;20750;-81
2023/12/27 11:07:47;;;;;;;6.43;3.30;;;;;;;7.75;81.11;101248.56;5055536;28;20215;-81
2023/12/27 11:10:16;;;;;;;4.27;2.70;;;;;;;7.80;80.83;101245.97;5054049;28;20666;-82
2023/12/27 11:12:45;;;;;;;6.97;2.77;;;;;;;7.85;80.90;101249.44;5056191;28;20240;-80
2023/12/27 11:15:13;;;;;;;7.10;3.03;;;;;;;7.91;79.39;101257.31;5056643;28;20285;-81
2023/12/27 11:17:41;;;;;;;4.37;2.30;;;;;;;7.94;79.47;101259.91;5050561;28;20208;-81
2023/12/27 11:20:10;;;;;;;7.90;2.23;;;;;;;7.98;78.91;101269.47;5045580;28;20230;-81
2023/12/27 11:22:37;;;;;;;5.73;2.03;;;;;;;7.96;80.16;101264.25;5046250;28;20207;-81
2023/12/27 11:25:04;;;;;;;6.63;2.80;;;;;;;7.92;79.84;101261.63;5047867;28;20217;-81
2023/12/27 11:27:31;;;;;;;5.53;2.63;;;;;;;7.92;79.96;101264.22;5046327;28;20592;-81
2023/12/27 11:29:59;;;;;;;9.07;2.67;;;;;;;7.96;78.80;101255.59;5044351;28;20574;-81
2023/12/27 11:32:27;;;;;;;4.80;1.77;;;;;;;8.00;78.90;101262.53;5042037;28;20202;-81